sensor_id;sensor_type;location;lat;lon;timestamp;pressure;altitude;pressure_sealevel;temperature;humidity
19600;BME280;9947;57.722;12.012;2022-11-15T00:00:33;101279.91;;;7.76;100.00
19600;BME280;9947;57.722;12.012;2022-11-15T00:03:00;101270.69;;;7.64;100.00
19600;BME280;9947;57.722;12.012;2022-11-15T00:05:27;101271.47;;;7.66;100.00
19600;BME280;9947;57.722;12.012;2022-11-15T00:07:54;101262.69;;;7.78;100.00
19600;BME280;9947;57.722;12.012;2022-11-15T00:10:21;101254.38;;;7.67;100.00
19600;BME280;9947;57.722;12.012;2022-11-15T00:12:47;101259.66;;;7.68;100.00
19600;BME280;9947;57.722;12.012;2022-11-15T00:15:17;101254.81;;;7.75;100.00
19600;BME280;9947;57.722;12.012;2022-11-15T00:17:44;101255.34;;;7.66;100.00
19600;BME280;9947;57.722;12.012;2022-11-15T00:20:14;101246.31;;;7.67;100.00
19600;BME280;9947;57.722;12.012;2022-11-15T00:22:41;101241.78;;;7.67;100.00
19600;BME280;9947;57.722;12.012;2022-11-15T00:25:10;101247.44;;;7.63;100.00
19600;BME280;9947;57.722;12.012;2022-11-15T00:27:37;101239.63;;;7.58;100.00
19600;BME280;9947;57.722;12.012;2022-11-15T00:30:05;101236.31;;;7.69;100.00
19600;BME280;9947;57.722;12.012;2022-11-15T00:32:33;101231.81;;;7.69;100.00
19600;BME280;9947;57.722;12.012;2022-11-15T00:35:00;101223.13;;;7.64;100.00
19600;BME280;9947;57.722;12.012;2022-11-15T00:37:27;101227.75;;;7.62;100.00
19600;BME280;9947;57.722;12.012;2022-11-15T00:39:54;101227.47;;;7.67;100.00
19600;BME280;9947;57.722;12.012;2022-11-15T00:42:20;101220.72;;;7.60;100.00
19600;BME280;9947;57.722;12.012;2022-11-15T00:44:47;101217.16;;;7.59;100.00
19600;BME280;9947;57.722;12.012;2022-11-15T00:47:14;101211.22;;;7.68;100.00
19600;BME280;9947;57.722;12.012;2022-11-15T00:49:42;101208.72;;;7.65;100.00
19600;BME280;9947;57.722;12.012;2022-11-15T00:52:10;101209.84;;;7.61;100.00
19600;BME280;9947;57.722;12.012;2022-11-15T00:54:36;101206.81;;;7.67;100.00
19600;BME280;9947;57.722;12.012;2022-11-15T00:57:03;101203.88;;;7.56;100.00
19600;BME280;9947;57.722;12.012;2022-11-15T00:59:30;101206.38;;;7.59;100.00
19600;BME280;9947;57.722;12.012;2022-11-15T01:01:57;101200.47;;;7.68;100.00
19600;BME280;9947;57.722;12.012;2022-11-15T01:04:24;101202.38;;;7.66;100.00
19600;BME280;9947;57.722;12.012;2022-11-15T01:06:52;101188.59;;;7.57;100.00
19600;BME280;9947;57.722;12.012;2022-11-15T01:09:19;101196.22;;;7.64;100.00
19600;BME280;9947;57.722;12.012;2022-11-15T01:11:46;101192.06;;;7.59;100.00
19600;BME280;9947;57.722;12.012;2022-11-15T01:14:13;101200.06;;;7.60;100.00
19600;BME280;9947;57.722;12.012;2022-11-15T01:16:40;101195.34;;;7.64;100.00
19600;BME280;9947;57.722;12.012;2022-11-15T01:19:07;101194.06;;;7.55;100.00
19600;BME280;9947;57.722;12.012;2022-11-15T01:21:34;101195.44;;;7.62;100.00
19600;BME280;9947;57.722;12.012;2022-11-15T01:24:02;101191.53;;;7.52;100.00
19600;BME280;9947;57.722;12.012;2022-11-15T01:26:29;101183.38;;;7.54;100.00
19600;BME280;9947;57.722;12.012;2022-11-15T01:28:56;101180.94;;;7.49;100.00
19600;BME280;9947;57.722;12.012;2022-11-15T01:31:23;101182.06;;;7.45;100.00
19600;BME280;9947;57.722;12.012;2022-11-15T01:33:50;101178.06;;;7.52;100.00
19600;BME280;9947;57.722;12.012;2022-11-15T01:36:19;101178.34;;;7.48;100.00
19600;BME280;9947;57.722;12.012;2022-11-15T01:38:52;101172.97;;;7.48;100.00
19600;BME280;9947;57.722;12.012;2022-11-15T01:41:23;101172.88;;;7.49;100.00
19600;BME280;9947;57.722;12.012;2022-11-15T01:43:53;101174.28;;;7.56;100.00
19600;BME280;9947;57.722;12.012;2022-11-15T01:46:28;101169.78;;;7.57;100.00
19600;BME280;9947;57.722;12.012;2022-11-15T01:48:58;101167.16;;;7.55;100.00
19600;BME280;9947;57.722;12.012;2022-11-15T01:51:32;101174.09;;;7.59;100.00
19600;BME280;9947;57.722;12.012;2022-11-15T01:54:03;101169.84;;;7.55;100.00
19600;BME280;9947;57.722;12.012;2022-11-15T01:56:37;101166.72;;;7.47;100.00
19600;BME280;9947;57.722;12.012;2022-11-15T01:59:08;101162.81;;;7.53;100.00
19600;BME280;9947;57.722;12.012;2022-11-15T02:01:35;101160.47;;;7.47;100.00
19600;BME280;9947;57.722;12.012;2022-11-15T02:04:05;101165.84;;;7.47;100.00
19600;BME280;9947;57.722;12.012;2022-11-15T02:06:34;101162.28;;;7.46;100.00
19600;BME280;9947;57.722;12.012;2022-11-15T02:09:02;101158.66;;;7.47;100.00
19600;BME280;9947;57.722;12.012;2022-11-15T02:11:29;101155.59;;;7.53;100.00
19600;BME280;9947;57.722;12.012;2022-11-15T02:13:58;101152.31;;;7.48;100.00
19600;BME280;9947;57.722;12.012;2022-11-15T02:16:35;101151.88;;;7.40;100.00
19600;BME280;9947;57.722;12.012;2022-11-15T02:19:20;101146.34;;;7.43;100.00
19600;BME280;9947;57.722;12.012;2022-11-15T02:22:00;101152.47;;;7.45;100.00
19600;BME280;9947;57.722;12.012;2022-11-15T02:24:54;101148.94;;;7.45;100.00
19600;BME280;9947;57.722;12.012;2022-11-15T02:27:59;101143.13;;;7.36;100.00
19600;BME280;9947;57.722;12.012;2022-11-15T02:30:38;101133.06;;;7.40;100.00
19600;BME280;9947;57.722;12.012;2022-11-15T02:33:14;101143.56;;;7.45;100.00
19600;BME280;9947;57.722;12.012;2022-11-15T02:35:54;101136.16;;;7.48;100.00
19600;BME280;9947;57.722;12.012;2022-11-15T02:38:30;101135.56;;;7.43;100.00
19600;BME280;9947;57.722;12.012;2022-11-15T02:41:01;101128.97;;;7.49;100.00
19600;BME280;9947;57.722;12.012;2022-11-15T02:43:33;101129.25;;;7.44;100.00
19600;BME280;9947;57.722;12.012;2022-11-15T02:46:24;101129.31;;;7.42;100.00
19600;BME280;9947;57.722;12.012;2022-11-15T02:49:14;101123.63;;;7.33;100.00
19600;BME280;9947;57.722;12.012;2022-11-15T02:51:43;101124.22;;;7.38;100.00
19600;BME280;9947;57.722;12.012;2022-11-15T02:54:14;101121.78;;;7.33;100.00
19600;BME280;9947;57.722;12.012;2022-11-15T02:56:43;101121.88;;;7.32;100.00
19600;BME280;9947;57.722;12.012;2022-11-15T03:02:18;101114.41;;;7.37;100.00
19600;BME280;9947;57.722;12.012;2022-11-15T03:04:53;101120.47;;;7.25;100.00
19600;BME280;9947;57.722;12.012;2022-11-15T03:07:26;101123.72;;;7.31;100.00
19600;BME280;9947;57.722;12.012;2022-11-15T03:10:02;101126.41;;;7.31;100.00
19600;BME280;9947;57.722;12.012;2022-11-15T03:12:36;101116.69;;;7.29;100.00
19600;BME280;9947;57.722;12.012;2022-11-15T03:15:07;101124.31;;;7.36;100.00
19600;BME280;9947;57.722;12.012;2022-11-15T03:17:46;101124.56;;;7.32;100.00
19600;BME280;9947;57.722;12.012;2022-11-15T03:20:17;101118.25;;;7.33;100.00
19600;BME280;9947;57.722;12.012;2022-11-15T03:22:46;101115.56;;;7.33;100.00
19600;BME280;9947;57.722;12.012;2022-11-15T03:25:18;101122.56;;;7.35;100.00
19600;BME280;9947;57.722;12.012;2022-11-15T03:27:48;101122.91;;;7.45;100.00
19600;BME280;9947;57.722;12.012;2022-11-15T03:30:17;101126.13;;;7.36;100.00
19600;BME280;9947;57.722;12.012;2022-11-15T03:32:48;101131.91;;;7.28;100.00
19600;BME280;9947;57.722;12.012;2022-11-15T03:35:18;101121.88;;;7.32;100.00
19600;BME280;9947;57.722;12.012;2022-11-15T03:37:51;101132.28;;;7.38;100.00
19600;BME280;9947;57.722;12.012;2022-11-15T03:40:22;101126.31;;;7.33;100.00
19600;BME280;9947;57.722;12.012;2022-11-15T03:43:00;101128.72;;;7.37;100.00
19600;BME280;9947;57.722;12.012;2022-11-15T03:45:32;101125.84;;;7.40;100.00
19600;BME280;9947;57.722;12.012;2022-11-15T03:48:10;101118.38;;;7.46;100.00
19600;BME280;9947;57.722;12.012;2022-11-15T03:50:40;101115.56;;;7.33;100.00
19600;BME280;9947;57.722;12.012;2022-11-15T03:53:08;101113.53;;;7.36;100.00
19600;BME280;9947;57.722;12.012;2022-11-15T03:55:35;101109.72;;;7.25;100.00
19600;BME280;9947;57.722;12.012;2022-11-15T03:58:02;101116.81;;;7.26;100.00
19600;BME280;9947;57.722;12.012;2022-11-15T04:00:29;101127.84;;;7.21;100.00
19600;BME280;9947;57.722;12.012;2022-11-15T04:02:56;101129.75;;;7.19;100.00
19600;BME280;9947;57.722;12.012;2022-11-15T04:05:24;101121.34;;;7.25;100.00
19600;BME280;9947;57.722;12.012;2022-11-15T04:07:51;101111.03;;;7.18;100.00
19600;BME280;9947;57.722;12.012;2022-11-15T04:10:18;101111.03;;;7.18;100.00
19600;BME280;9947;57.722;12.012;2022-11-15T04:12:46;101116.50;;;7.16;100.00
19600;BME280;9947;57.722;12.012;2022-11-15T04:15:15;101115.97;;;7.25;100.00
19600;BME280;9947;57.722;12.012;2022-11-15T04:17:44;101113.34;;;7.24;100.00
19600;BME280;9947;57.722;12.012;2022-11-15T04:20:13;101102.97;;;7.18;100.00
19600;BME280;9947;57.722;12.012;2022-11-15T04:23:02;101117.28;;;7.18;100.00
19600;BME280;9947;57.722;12.012;2022-11-15T04:25:50;101101.84;;;7.22;100.00
19600;BME280;9947;57.722;12.012;2022-11-15T04:28:18;101102.09;;;7.17;100.00
19600;BME280;9947;57.722;12.012;2022-11-15T04:30:46;101100.44;;;7.15;100.00
19600;BME280;9947;57.722;12.012;2022-11-15T04:33:12;101106.59;;;7.17;100.00
19600;BME280;9947;57.722;12.012;2022-11-15T04:35:40;101106.78;;;7.14;100.00
19600;BME280;9947;57.722;12.012;2022-11-15T04:38:10;101104.88;;;7.16;100.00
19600;BME280;9947;57.722;12.012;2022-11-15T04:40:36;101097.84;;;7.13;100.00
19600;BME280;9947;57.722;12.012;2022-11-15T04:43:03;101094.91;;;7.18;100.00
19600;BME280;9947;57.722;12.012;2022-11-15T04:45:30;101088.75;;;7.16;100.00
19600;BME280;9947;57.722;12.012;2022-11-15T04:47:57;101090.66;;;7.14;100.00
19600;BME280;9947;57.722;12.012;2022-11-15T04:50:23;101088.75;;;7.16;100.00
19600;BME280;9947;57.722;12.012;2022-11-15T04:52:52;101097.94;;;7.11;100.00
19600;BME280;9947;57.722;12.012;2022-11-15T04:55:22;101094.97;;;7.16;100.00
19600;BME280;9947;57.722;12.012;2022-11-15T04:57:57;101095.16;;;7.13;100.00
19600;BME280;9947;57.722;12.012;2022-11-15T05:00:25;101087.38;;;7.08;100.00
19600;BME280;9947;57.722;12.012;2022-11-15T05:02:52;101083.53;;;7.13;100.00
19600;BME280;9947;57.722;12.012;2022-11-15T05:05:37;101084.50;;;7.11;100.00
19600;BME280;9947;57.722;12.012;2022-11-15T05:08:04;101087.09;;;7.13;100.00
19600;BME280;9947;57.722;12.012;2022-11-15T05:10:35;101090.66;;;7.14;100.00
19600;BME280;9947;57.722;12.012;2022-11-15T05:13:02;101089.78;;;7.13;100.00
19600;BME280;9947;57.722;12.012;2022-11-15T05:15:28;101079.56;;;7.04;100.00
19600;BME280;9947;57.722;12.012;2022-11-15T05:17:57;101077.66;;;7.06;100.00
19600;BME280;9947;57.722;12.012;2022-11-15T05:20:25;101082.69;;;7.12;100.00
19600;BME280;9947;57.722;12.012;2022-11-15T05:22:54;101072.09;;;7.09;100.00
19600;BME280;9947;57.722;12.012;2022-11-15T05:25:21;101080.94;;;7.11;100.00
19600;BME280;9947;57.722;12.012;2022-11-15T05:27:51;101068.28;;;7.13;100.00
19600;BME280;9947;57.722;12.012;2022-11-15T05:30:18;101069.50;;;7.07;100.00
19600;BME280;9947;57.722;12.012;2022-11-15T05:32:45;101077.81;;;7.19;100.00
19600;BME280;9947;57.722;12.012;2022-11-15T05:35:15;101067.41;;;7.13;100.00
19600;BME280;9947;57.722;12.012;2022-11-15T05:37:45;101070.38;;;7.08;100.00
19600;BME280;9947;57.722;12.012;2022-11-15T05:40:11;101071.91;;;7.12;100.00
19600;BME280;9947;57.722;12.012;2022-11-15T05:42:38;101067.84;;;7.05;100.00
19600;BME280;9947;57.722;12.012;2022-11-15T05:45:08;101077.47;;;7.09;100.00
19600;BME280;9947;57.722;12.012;2022-11-15T05:47:37;101078.16;;;7.13;100.00
19600;BME280;9947;57.722;12.012;2022-11-15T05:50:06;101077.13;;;7.15;100.00
19600;BME280;9947;57.722;12.012;2022-11-15T05:52:35;101070.19;;;7.11;100.00
19600;BME280;9947;57.722;12.012;2022-11-15T05:55:05;101074.16;;;7.20;100.00
19600;BME280;9947;57.722;12.012;2022-11-15T05:57:33;101086.22;;;7.13;100.00
19600;BME280;9947;57.722;12.012;2022-11-15T06:00:00;101084.91;;;7.20;100.00
19600;BME280;9947;57.722;12.012;2022-11-15T06:02:29;101084.41;;;7.13;100.00
19600;BME280;9947;57.722;12.012;2022-11-15T06:04:56;101084.91;;;7.20;100.00
19600;BME280;9947;57.722;12.012;2022-11-15T06:07:23;101090.28;;;7.20;100.00
19600;BME280;9947;57.722;12.012;2022-11-15T06:09:50;101082.13;;;7.21;100.00
19600;BME280;9947;57.722;12.012;2022-11-15T06:12:17;101074.34;;;7.17;100.00
19600;BME280;9947;57.722;12.012;2022-11-15T06:14:43;101074.34;;;7.17;100.00
19600;BME280;9947;57.722;12.012;2022-11-15T06:17:10;101070.00;;;7.14;100.00
19600;BME280;9947;57.722;12.012;2022-11-15T06:19:39;101059.16;;;7.16;100.00
19600;BME280;9947;57.722;12.012;2022-11-15T06:22:06;101063.31;;;7.21;100.00
19600;BME280;9947;57.722;12.012;2022-11-15T06:24:34;101063.00;;;7.11;100.00
19600;BME280;9947;57.722;12.012;2022-11-15T06:27:01;101077.28;;;7.12;100.00
19600;BME280;9947;57.722;12.012;2022-11-15T06:29:28;101078.75;;;7.18;100.00
19600;BME280;9947;57.722;12.012;2022-11-15T06:31:55;101070.00;;;7.14;100.00
19600;BME280;9947;57.722;12.012;2022-11-15T06:34:24;101075.38;;;7.14;100.00
19600;BME280;9947;57.722;12.012;2022-11-15T06:36:53;101073.47;;;7.16;100.00
19600;BME280;9947;57.722;12.012;2022-11-15T06:39:20;101082.13;;;7.21;100.00
19600;BME280;9947;57.722;12.012;2022-11-15T06:41:47;101077.28;;;7.12;100.00
19600;BME280;9947;57.722;12.012;2022-11-15T06:44:14;101080.69;;;7.16;100.00
19600;BME280;9947;57.722;12.012;2022-11-15T06:46:41;101080.59;;;7.17;100.00
19600;BME280;9947;57.722;12.012;2022-11-15T06:49:08;101080.41;;;7.20;100.00
19600;BME280;9947;57.722;12.012;2022-11-15T06:51:35;101074.94;;;7.22;100.00
19600;BME280;9947;57.722;12.012;2022-11-15T06:54:03;101074.16;;;7.20;100.00
19600;BME280;9947;57.722;12.012;2022-11-15T06:56:30;101070.34;;;7.24;100.00
19600;BME280;9947;57.722;12.012;2022-11-15T06:58:57;101076.16;;;7.16;100.00
19600;BME280;9947;57.722;12.012;2022-11-15T07:01:24;101071.38;;;7.21;100.00
19600;BME280;9947;57.722;12.012;2022-11-15T07:03:51;101073.13;;;7.22;100.00
19600;BME280;9947;57.722;12.012;2022-11-15T07:06:17;101079.38;;;7.23;100.00
19600;BME280;9947;57.722;12.012;2022-11-15T07:08:44;101081.78;;;7.27;100.00
19600;BME280;9947;57.722;12.012;2022-11-15T07:11:13;101075.03;;;7.20;100.00
19600;BME280;9947;57.722;12.012;2022-11-15T07:13:40;101089.25;;;7.22;100.00
19600;BME280;9947;57.722;12.012;2022-11-15T07:16:08;101100.53;;;7.29;100.00
19600;BME280;9947;57.722;12.012;2022-11-15T07:18:36;101106.69;;;7.31;100.00
19600;BME280;9947;57.722;12.012;2022-11-15T07:21:08;101108.34;;;7.33;100.00
19600;BME280;9947;57.722;12.012;2022-11-15T07:23:36;101120.75;;;7.36;100.00
19600;BME280;9947;57.722;12.012;2022-11-15T07:26:03;101108.66;;;7.27;100.00
19600;BME280;9947;57.722;12.012;2022-11-15T07:28:32;101124.41;;;7.35;100.00
19600;BME280;9947;57.722;12.012;2022-11-15T07:31:02;101128.63;;;7.39;100.00
19600;BME280;9947;57.722;12.012;2022-11-15T07:33:29;101136.78;;;7.37;100.00
19600;BME280;9947;57.722;12.012;2022-11-15T07:35:58;101137.47;;;7.41;100.00
19600;BME280;9947;57.722;12.012;2022-11-15T07:38:27;101140.25;;;7.39;100.00
19600;BME280;9947;57.722;12.012;2022-11-15T07:40:56;101152.56;;;7.43;100.00
19600;BME280;9947;57.722;12.012;2022-11-15T07:43:23;101146.16;;;7.46;100.00
19600;BME280;9947;57.722;12.012;2022-11-15T07:45:57;101151.72;;;7.43;100.00
19600;BME280;9947;57.722;12.012;2022-11-15T07:48:24;101153.34;;;7.46;100.00
19600;BME280;9947;57.722;12.012;2022-11-15T07:50:50;101166.13;;;7.42;100.00
19600;BME280;9947;57.722;12.012;2022-11-15T07:53:17;101168.63;;;7.45;100.00
19600;BME280;9947;57.722;12.012;2022-11-15T07:55:44;101162.28;;;7.46;100.00
19600;BME280;9947;57.722;12.012;2022-11-15T07:58:11;101172.19;;;7.46;100.00
19600;BME280;9947;57.722;12.012;2022-11-15T08:00:38;101166.97;;;7.42;100.00
19600;BME280;9947;57.722;12.012;2022-11-15T08:03:08;101164.53;;;7.54;100.00
19600;BME280;9947;57.722;12.012;2022-11-15T08:05:36;101167.06;;;7.57;100.00
19600;BME280;9947;57.722;12.012;2022-11-15T08:08:04;101165.25;;;7.57;100.00
19600;BME280;9947;57.722;12.012;2022-11-15T08:10:31;101167.59;;;7.63;100.00
19600;BME280;9947;57.722;12.012;2022-11-15T08:12:59;101174.19;;;7.58;100.00
19600;BME280;9947;57.722;12.012;2022-11-15T08:15:26;101178.94;;;7.68;100.00
19600;BME280;9947;57.722;12.012;2022-11-15T08:17:56;101186.50;;;7.62;100.00
19600;BME280;9947;57.722;12.012;2022-11-15T08:20:28;101185.63;;;7.61;100.00
19600;BME280;9947;57.722;12.012;2022-11-15T08:22:55;101171.13;;;7.64;100.00
19600;BME280;9947;57.722;12.012;2022-11-15T08:25:23;101192.50;;;7.67;100.00
19600;BME280;9947;57.722;12.012;2022-11-15T08:27:52;101184.97;;;7.58;100.00
19600;BME280;9947;57.722;12.012;2022-11-15T08:30:19;101192.75;;;7.62;100.00
19600;BME280;9947;57.722;12.012;2022-11-15T08:32:47;101188.06;;;7.66;100.00
19600;BME280;9947;57.722;12.012;2022-11-15T08:35:14;101193.34;;;7.67;100.00
19600;BME280;9947;57.722;12.012;2022-11-15T08:37:42;101187.53;;;7.75;100.00
19600;BME280;9947;57.722;12.012;2022-11-15T08:40:10;101185.47;;;7.64;100.00
19600;BME280;9947;57.722;12.012;2022-11-15T08:42:37;101186.56;;;7.76;100.00
19600;BME280;9947;57.722;12.012;2022-11-15T08:45:07;101193.09;;;7.72;100.00
19600;BME280;9947;57.722;12.012;2022-11-15T08:47:34;101194.63;;;7.76;100.00
19600;BME280;9947;57.722;12.012;2022-11-15T08:50:01;101191.25;;;7.72;100.00
19600;BME280;9947;57.722;12.012;2022-11-15T08:52:28;101187.63;;;7.73;100.00
19600;BME280;9947;57.722;12.012;2022-11-15T08:54:56;101189.72;;;7.68;100.00
19600;BME280;9947;57.722;12.012;2022-11-15T08:57:23;101186.84;;;7.71;100.00
19600;BME280;9947;57.722;12.012;2022-11-15T08:59:50;101190.41;;;7.72;100.00
19600;BME280;9947;57.722;12.012;2022-11-15T09:02:18;101192.91;;;7.75;100.00
19600;BME280;9947;57.722;12.012;2022-11-15T09:04:47;101192.81;;;7.77;100.00
19600;BME280;9947;57.722;12.012;2022-11-15T09:07:17;101189.00;;;7.81;100.00
19600;BME280;9947;57.722;12.012;2022-11-15T09:09:44;101190.47;;;7.86;100.00
19600;BME280;9947;57.722;12.012;2022-11-15T09:12:12;101180.22;;;7.93;100.00
19600;BME280;9947;57.722;12.012;2022-11-15T09:14:39;101172.31;;;7.90;100.00
19600;BME280;9947;57.722;12.012;2022-11-15T09:17:07;101178.25;;;7.81;100.00
19600;BME280;9947;57.722;12.012;2022-11-15T09:19:34;101183.09;;;7.90;100.00
19600;BME280;9947;57.722;12.012;2022-11-15T09:22:05;101174.66;;;7.96;100.00
19600;BME280;9947;57.722;12.012;2022-11-15T09:24:32;101172.13;;;7.93;100.00
19600;BME280;9947;57.722;12.012;2022-11-15T09:26:59;101168.66;;;7.91;100.00
19600;BME280;9947;57.722;12.012;2022-11-15T09:29:27;101175.41;;;7.98;100.00
19600;BME280;9947;57.722;12.012;2022-11-15T09:31:54;101182.44;;;8.00;100.00
19600;BME280;9947;57.722;12.012;2022-11-15T09:34:21;101180.44;;;8.04;100.00
19600;BME280;9947;57.722;12.012;2022-11-15T09:36:50;101188.69;;;8.01;100.00
19600;BME280;9947;57.722;12.012;2022-11-15T09:39:20;101199.47;;;8.01;100.00
19600;BME280;9947;57.722;12.012;2022-11-15T09:42:10;101199.03;;;8.09;100.00
19600;BME280;9947;57.722;12.012;2022-11-15T09:44:59;101196.00;;;7.99;100.00
19600;BME280;9947;57.722;12.012;2022-11-15T09:47:44;101194.00;;;8.02;100.00
19600;BME280;9947;57.722;12.012;2022-11-15T09:50:14;101190.25;;;8.05;100.00
19600;BME280;9947;57.722;12.012;2022-11-15T09:52:43;101199.13;;;8.07;100.00
19600;BME280;9947;57.722;12.012;2022-11-15T09:55:12;101194.53;;;8.09;100.00
19600;BME280;9947;57.722;12.012;2022-11-15T09:57:52;101200.50;;;8.14;100.00
19600;BME280;9947;57.722;12.012;2022-11-15T10:00:25;101204.44;;;8.09;100.00
19600;BME280;9947;57.722;12.012;2022-11-15T10:03:06;101181.38;;;8.19;100.00
19600;BME280;9947;57.722;12.012;2022-11-15T10:05:38;101190.13;;;8.22;100.00
19600;BME280;9947;57.722;12.012;2022-11-15T10:08:22;101194.56;;;8.23;100.00
19600;BME280;9947;57.722;12.012;2022-11-15T10:10:56;101196.56;;;8.20;100.00
19600;BME280;9947;57.722;12.012;2022-11-15T10:13:26;101208.78;;;8.25;100.00
19600;BME280;9947;57.722;12.012;2022-11-15T10:16:03;101198.19;;;8.22;100.00
19600;BME280;9947;57.722;12.012;2022-11-15T10:18:47;101196.56;;;8.20;100.00
19600;BME280;9947;57.722;12.012;2022-11-15T10:21:29;101202.25;;;8.29;100.00
19600;BME280;9947;57.722;12.012;2022-11-15T10:23:59;101201.00;;;8.21;100.00
19600;BME280;9947;57.722;12.012;2022-11-15T10:26:26;101207.84;;;8.26;100.00
19600;BME280;9947;57.722;12.012;2022-11-15T10:28:54;101203.13;;;8.30;100.00
19600;BME280;9947;57.722;12.012;2022-11-15T10:31:24;101203.50;;;8.24;100.00
19600;BME280;9947;57.722;12.012;2022-11-15T10:34:03;101203.59;;;8.22;100.00
19600;BME280;9947;57.722;12.012;2022-11-15T10:36:37;101202.34;;;8.28;100.00
19600;BME280;9947;57.722;12.012;2022-11-15T10:39:11;101203.88;;;8.33;100.00
19600;BME280;9947;57.722;12.012;2022-11-15T10:41:40;101215.41;;;8.36;100.00
19600;BME280;9947;57.722;12.012;2022-11-15T10:44:23;101201.84;;;8.37;100.00
19600;BME280;9947;57.722;12.012;2022-11-15T10:47:23;101210.03;;;8.36;100.00
19600;BME280;9947;57.722;12.012;2022-11-15T10:50:25;101200.97;;;8.37;100.00
19600;BME280;9947;57.722;12.012;2022-11-15T10:52:53;101199.34;;;8.34;100.00
19600;BME280;9947;57.722;12.012;2022-11-15T10:55:24;101203.69;;;8.37;100.00
19600;BME280;9947;57.722;12.012;2022-11-15T10:57:53;101203.91;;;8.32;100.00
19600;BME280;9947;57.722;12.012;2022-11-15T11:00:30;101202.03;;;8.34;100.00
19600;BME280;9947;57.722;12.012;2022-11-15T11:03:30;101201.19;;;8.32;100.00
19600;BME280;9947;57.722;12.012;2022-11-15T11:06:06;101200.41;;;8.46;100.00
19600;BME280;9947;57.722;12.012;2022-11-15T11:08:34;101186.38;;;8.41;100.00
19600;BME280;9947;57.722;12.012;2022-11-15T11:11:02;101185.50;;;8.40;100.00
19600;BME280;9947;57.722;12.012;2022-11-15T11:13:34;101183.09;;;8.50;100.00
19600;BME280;9947;57.722;12.012;2022-11-15T11:16:40;101194.44;;;8.41;100.00
19600;BME280;9947;57.722;12.012;2022-11-15T11:19:28;101176.28;;;8.44;100.00
19600;BME280;9947;57.722;12.012;2022-11-15T11:22:03;101174.53;;;8.43;100.00
19600;BME280;9947;57.722;12.012;2022-11-15T11:24:41;101180.59;;;8.47;100.00
19600;BME280;9947;57.722;12.012;2022-11-15T11:27:43;101177.31;;;8.42;100.00
19600;BME280;9947;57.722;12.012;2022-11-15T11:30:14;101170.19;;;8.41;100.00
19600;BME280;9947;57.722;12.012;2022-11-15T11:33:00;101177.53;;;8.53;100.00
19600;BME280;9947;57.722;12.012;2022-11-15T11:35:48;101177.16;;;8.59;100.00
19600;BME280;9947;57.722;12.012;2022-11-15T11:38:45;101173.69;;;8.57;100.00
19600;BME280;9947;57.722;12.012;2022-11-15T11:41:56;101172.03;;;8.54;100.00
19600;BME280;9947;57.722;12.012;2022-11-15T11:44:41;101178.28;;;8.55;100.00
19600;BME280;9947;57.722;12.012;2022-11-15T11:47:12;101175.03;;;8.50;100.00
19600;BME280;9947;57.722;12.012;2022-11-15T11:49:50;101183.47;;;8.44;100.00
19600;BME280;9947;57.722;12.012;2022-11-15T11:52:23;101178.00;;;8.45;100.00
19600;BME280;9947;57.722;12.012;2022-11-15T11:55:01;101170.03;;;8.58;100.00
19600;BME280;9947;57.722;12.012;2022-11-15T11:57:37;101167.06;;;8.62;100.00
19600;BME280;9947;57.722;12.012;2022-11-15T12:00:16;101165.63;;;8.71;100.00
19600;BME280;9947;57.722;12.012;2022-11-15T12:02:48;101158.31;;;8.73;100.00
19600;BME280;9947;57.722;12.012;2022-11-15T12:05:26;101161.28;;;8.83;100.00
19600;BME280;9947;57.722;12.012;2022-11-15T12:08:20;101155.69;;;8.72;100.00
19600;BME280;9947;57.722;12.012;2022-11-15T12:10:54;101171.50;;;8.78;100.00
19600;BME280;9947;57.722;12.012;2022-11-15T12:13:26;101170.94;;;8.87;100.00
19600;BME280;9947;57.722;12.012;2022-11-15T12:16:04;101182.75;;;8.70;100.00
19600;BME280;9947;57.722;12.012;2022-11-15T12:18:34;101183.03;;;8.80;100.00
19600;BME280;9947;57.722;12.012;2022-11-15T12:21:05;101181.13;;;8.68;100.00
19600;BME280;9947;57.722;12.012;2022-11-15T12:23:40;101191.22;;;8.64;100.00
19600;BME280;9947;57.722;12.012;2022-11-15T12:26:16;101195.75;;;8.63;100.00
19600;BME280;9947;57.722;12.012;2022-11-15T12:28:47;101190.25;;;8.65;100.00
19600;BME280;9947;57.722;12.012;2022-11-15T12:31:19;101193.72;;;8.67;100.00
19600;BME280;9947;57.722;12.012;2022-11-15T12:33:55;101195.56;;;8.67;100.00
19600;BME280;9947;57.722;12.012;2022-11-15T12:36:38;101201.63;;;8.70;100.00
19600;BME280;9947;57.722;12.012;2022-11-15T12:39:07;101196.63;;;8.64;100.00
19600;BME280;9947;57.722;12.012;2022-11-15T12:41:36;101205.66;;;8.63;100.00
19600;BME280;9947;57.722;12.012;2022-11-15T12:44:04;101200.22;;;8.49;100.00
19600;BME280;9947;57.722;12.012;2022-11-15T12:47:00;101199.75;;;8.56;100.00
19600;BME280;9947;57.722;12.012;2022-11-15T12:49:43;101194.84;;;8.49;100.00
19600;BME280;9947;57.722;12.012;2022-11-15T12:52:11;101204.25;;;8.42;100.00
19600;BME280;9947;57.722;12.012;2022-11-15T12:54:57;101196.28;;;8.24;100.00
19600;BME280;9947;57.722;12.012;2022-11-15T12:57:51;101210.81;;;8.22;100.00
19600;BME280;9947;57.722;12.012;2022-11-15T13:00:42;101209.81;;;8.09;100.00
19600;BME280;9947;57.722;12.012;2022-11-15T13:03:33;101219.84;;;8.05;100.00
19600;BME280;9947;57.722;12.012;2022-11-15T13:06:37;101214.78;;;7.85;100.00
19600;BME280;9947;57.722;12.012;2022-11-15T13:12:54;101213.66;;;7.89;100.00
19600;BME280;9947;57.722;12.012;2022-11-15T13:15:53;101215.31;;;7.76;100.00
19600;BME280;9947;57.722;12.012;2022-11-15T13:18:29;101205.50;;;7.74;100.00
19600;BME280;9947;57.722;12.012;2022-11-15T13:20:56;101196.72;;;7.71;99.38